Archival Weather

Alykel

Alykel, Russia (UOOO)

Report from: Tuesday, November 21, 2023 2:00 PM UTC
Current time: Friday, July 19, 2024 3:02 AM UTC

Current weather – Weather history – Daily summaries
Weather forecast

Present weatherLight snow, drifting snow
Temperature-26.0°C (-14.8°F)
Wind chill-38.5°C (-37.2°F)
Dew point-28.0°C (-18.4°F)
Winds 11.7 kts (6 m/s, 13.4 mph) South (190°)
Visibility2.2 mi. (3.5 km)
Clouds Ceiling: Overcast 1,500 ft. (457 m)
Altimeter30.30 in.Hg (1026 mB)
Precip. events QF 1:33 AM
Relative humidity83 %
Density altitude-5,757 ft. (-1,755 m)
Remarks No significant changes expected in the next two hours
Flight conditions Instrument Meteorological Conditions
Raw dataUOOO 211400Z 19006MPS 3500 -SN DRSN OVC015 M26/M28 Q1026 R19/35//60 NOSIG RMK QFE753/1004
An error has occurred. This application may no longer respond until reloaded. Reload 🗙